sensor_id;sensor_type;location;lat;lon;timestamp;P1;durP1;ratioP1;P2;durP2;ratioP2
68225;SDS011;55045;49.410;11.030;2023-04-24T00:02:11;7.75;;;3.78;;
68225;SDS011;55045;49.410;11.030;2023-04-24T00:05:15;4.57;;;3.60;;
68225;SDS011;55045;49.410;11.030;2023-04-24T00:08:20;5.72;;;3.40;;
68225;SDS011;55045;49.410;11.030;2023-04-24T00:11:24;5.03;;;3.45;;
68225;SDS011;55045;49.410;11.030;2023-04-24T00:14:27;6.20;;;3.83;;
68225;SDS011;55045;49.410;11.030;2023-04-24T00:17:31;5.43;;;3.80;;
68225;SDS011;55045;49.410;11.030;2023-04-24T00:20:34;9.00;;;4.15;;
68225;SDS011;55045;49.410;11.030;2023-04-24T00:23:39;7.43;;;4.45;;
68225;SDS011;55045;49.410;11.030;2023-04-24T00:26:42;6.40;;;4.05;;
68225;SDS011;55045;49.410;11.030;2023-04-24T00:29:46;11.80;;;4.32;;
68225;SDS011;55045;49.410;11.030;2023-04-24T00:32:49;7.70;;;4.63;;
68225;SDS011;55045;49.410;11.030;2023-04-24T00:35:53;6.00;;;4.25;;
68225;SDS011;55045;49.410;11.030;2023-04-24T00:38:57;5.60;;;3.63;;
68225;SDS011;55045;49.410;11.030;2023-04-24T00:42:01;7.53;;;3.40;;
68225;SDS011;55045;49.410;11.030;2023-04-24T00:45:06;5.60;;;3.90;;
68225;SDS011;55045;49.410;11.030;2023-04-24T00:48:10;7.95;;;3.70;;
68225;SDS011;55045;49.410;11.030;2023-04-24T00:51:14;7.47;;;3.50;;
68225;SDS011;55045;49.410;11.030;2023-04-24T00:54:19;5.15;;;3.60;;
68225;SDS011;55045;49.410;11.030;2023-04-24T00:57:22;5.57;;;4.10;;
68225;SDS011;55045;49.410;11.030;2023-04-24T01:00:26;4.47;;;3.50;;
68225;SDS011;55045;49.410;11.030;2023-04-24T01:03:29;4.20;;;3.50;;
68225;SDS011;55045;49.410;11.030;2023-04-24T01:06:34;6.95;;;3.97;;
68225;SDS011;55045;49.410;11.030;2023-04-24T01:09:39;5.35;;;3.55;;
68225;SDS011;55045;49.410;11.030;2023-04-24T01:12:44;5.70;;;3.45;;
68225;SDS011;55045;49.410;11.030;2023-04-24T01:15:47;5.68;;;3.03;;
68225;SDS011;55045;49.410;11.030;2023-04-24T01:18:51;2.88;;;2.53;;
68225;SDS011;55045;49.410;11.030;2023-04-24T01:21:55;3.65;;;3.10;;
68225;SDS011;55045;49.410;11.030;2023-04-24T01:25:03;4.18;;;2.60;;
68225;SDS011;55045;49.410;11.030;2023-04-24T01:28:07;3.38;;;2.53;;
68225;SDS011;55045;49.410;11.030;2023-04-24T01:31:10;6.32;;;2.85;;
68225;SDS011;55045;49.410;11.030;2023-04-24T01:34:13;3.42;;;2.67;;
68225;SDS011;55045;49.410;11.030;2023-04-24T01:37:17;3.10;;;2.30;;
68225;SDS011;55045;49.410;11.030;2023-04-24T01:40:22;3.60;;;2.45;;
68225;SDS011;55045;49.410;11.030;2023-04-24T01:43:25;4.55;;;2.72;;
68225;SDS011;55045;49.410;11.030;2023-04-24T01:46:32;4.13;;;2.10;;
68225;SDS011;55045;49.410;11.030;2023-04-24T01:49:38;4.68;;;2.15;;
68225;SDS011;55045;49.410;11.030;2023-04-24T01:52:42;3.15;;;1.88;;
68225;SDS011;55045;49.410;11.030;2023-04-24T01:55:47;3.75;;;2.10;;
68225;SDS011;55045;49.410;11.030;2023-04-24T01:58:50;5.25;;;2.10;;
68225;SDS011;55045;49.410;11.030;2023-04-24T02:01:56;4.55;;;1.98;;
68225;SDS011;55045;49.410;11.030;2023-04-24T02:04:59;2.45;;;1.98;;
68225;SDS011;55045;49.410;11.030;2023-04-24T02:08:03;2.42;;;1.88;;
68225;SDS011;55045;49.410;11.030;2023-04-24T02:11:08;2.55;;;1.58;;
68225;SDS011;55045;49.410;11.030;2023-04-24T02:14:12;4.07;;;2.17;;
68225;SDS011;55045;49.410;11.030;2023-04-24T02:17:15;5.53;;;1.88;;
68225;SDS011;55045;49.410;11.030;2023-04-24T02:20:18;4.18;;;2.00;;
68225;SDS011;55045;49.410;11.030;2023-04-24T02:23:22;2.15;;;1.95;;
68225;SDS011;55045;49.410;11.030;2023-04-24T02:26:26;1.60;;;1.50;;
68225;SDS011;55045;49.410;11.030;2023-04-24T02:29:30;3.22;;;2.05;;
68225;SDS011;55045;49.410;11.030;2023-04-24T02:32:33;4.50;;;2.00;;
68225;SDS011;55045;49.410;11.030;2023-04-24T02:35:37;4.97;;;2.17;;
68225;SDS011;55045;49.410;11.030;2023-04-24T02:38:40;3.45;;;2.30;;
68225;SDS011;55045;49.410;11.030;2023-04-24T02:41:45;4.15;;;2.53;;
68225;SDS011;55045;49.410;11.030;2023-04-24T02:44:50;3.17;;;2.45;;
68225;SDS011;55045;49.410;11.030;2023-04-24T02:47:54;2.38;;;2.10;;
68225;SDS011;55045;49.410;11.030;2023-04-24T02:50:57;4.43;;;2.88;;
68225;SDS011;55045;49.410;11.030;2023-04-24T02:54:00;6.78;;;2.67;;
68225;SDS011;55045;49.410;11.030;2023-04-24T02:57:06;2.67;;;2.25;;
68225;SDS011;55045;49.410;11.030;2023-04-24T03:00:09;2.80;;;2.38;;
68225;SDS011;55045;49.410;11.030;2023-04-24T03:03:13;4.50;;;2.67;;
68225;SDS011;55045;49.410;11.030;2023-04-24T03:06:17;2.50;;;2.30;;
68225;SDS011;55045;49.410;11.030;2023-04-24T03:09:20;2.50;;;2.30;;
68225;SDS011;55045;49.410;11.030;2023-04-24T03:12:25;2.90;;;2.00;;
68225;SDS011;55045;49.410;11.030;2023-04-24T03:15:29;2.78;;;2.42;;
68225;SDS011;55045;49.410;11.030;2023-04-24T03:18:33;2.88;;;2.10;;
68225;SDS011;55045;49.410;11.030;2023-04-24T03:21:38;3.97;;;2.30;;
68225;SDS011;55045;49.410;11.030;2023-04-24T03:24:42;2.40;;;2.20;;
68225;SDS011;55045;49.410;11.030;2023-04-24T03:27:50;5.80;;;2.35;;
68225;SDS011;55045;49.410;11.030;2023-04-24T03:34:49;3.13;;;2.78;;
68225;SDS011;55045;49.410;11.030;2023-04-24T03:37:53;3.75;;;3.30;;
68225;SDS011;55045;49.410;11.030;2023-04-24T03:41:20;3.63;;;3.20;;
68225;SDS011;55045;49.410;11.030;2023-04-24T03:44:28;4.07;;;3.42;;
68225;SDS011;55045;49.410;11.030;2023-04-24T03:47:31;5.07;;;4.00;;
68225;SDS011;55045;49.410;11.030;2023-04-24T03:50:37;6.43;;;4.38;;
68225;SDS011;55045;49.410;11.030;2023-04-24T03:53:43;8.30;;;4.13;;
68225;SDS011;55045;49.410;11.030;2023-04-24T03:56:50;5.70;;;4.30;;
68225;SDS011;55045;49.410;11.030;2023-04-24T03:59:54;5.63;;;4.25;;
68225;SDS011;55045;49.410;11.030;2023-04-24T04:02:59;7.28;;;4.28;;
68225;SDS011;55045;49.410;11.030;2023-04-24T04:06:04;6.65;;;4.13;;
68225;SDS011;55045;49.410;11.030;2023-04-24T04:09:08;4.95;;;3.95;;
68225;SDS011;55045;49.410;11.030;2023-04-24T04:12:12;6.40;;;4.38;;
68225;SDS011;55045;49.410;11.030;2023-04-24T04:15:15;7.95;;;3.90;;
68225;SDS011;55045;49.410;11.030;2023-04-24T04:18:18;5.63;;;3.92;;
68225;SDS011;55045;49.410;11.030;2023-04-24T04:21:23;4.93;;;3.63;;
68225;SDS011;55045;49.410;11.030;2023-04-24T04:24:36;5.72;;;3.85;;
68225;SDS011;55045;49.410;11.030;2023-04-24T04:27:43;4.53;;;3.55;;
68225;SDS011;55045;49.410;11.030;2023-04-24T04:30:47;7.30;;;4.05;;
68225;SDS011;55045;49.410;11.030;2023-04-24T04:33:51;6.97;;;3.72;;
68225;SDS011;55045;49.410;11.030;2023-04-24T04:36:55;5.70;;;4.18;;
68225;SDS011;55045;49.410;11.030;2023-04-24T04:40:12;6.07;;;4.15;;
68225;SDS011;55045;49.410;11.030;2023-04-24T04:43:26;8.82;;;4.80;;
68225;SDS011;55045;49.410;11.030;2023-04-24T04:46:30;8.48;;;4.82;;
68225;SDS011;55045;49.410;11.030;2023-04-24T04:49:45;7.32;;;5.03;;
68225;SDS011;55045;49.410;11.030;2023-04-24T04:52:54;6.55;;;3.85;;
68225;SDS011;55045;49.410;11.030;2023-04-24T04:56:05;7.18;;;4.70;;
68225;SDS011;55045;49.410;11.030;2023-04-24T04:59:15;7.50;;;4.90;;
68225;SDS011;55045;49.410;11.030;2023-04-24T05:02:18;8.40;;;5.32;;
68225;SDS011;55045;49.410;11.030;2023-04-24T05:05:22;6.15;;;4.75;;
68225;SDS011;55045;49.410;11.030;2023-04-24T05:08:27;6.70;;;5.03;;
68225;SDS011;55045;49.410;11.030;2023-04-24T05:11:30;9.75;;;5.55;;
68225;SDS011;55045;49.410;11.030;2023-04-24T05:14:35;10.32;;;5.40;;
68225;SDS011;55045;49.410;11.030;2023-04-24T05:17:39;8.55;;;5.18;;
68225;SDS011;55045;49.410;11.030;2023-04-24T05:20:43;8.90;;;5.63;;
68225;SDS011;55045;49.410;11.030;2023-04-24T05:23:48;7.78;;;6.05;;
68225;SDS011;55045;49.410;11.030;2023-04-24T05:27:01;7.43;;;6.38;;
68225;SDS011;55045;49.410;11.030;2023-04-24T05:30:11;8.25;;;6.25;;
68225;SDS011;55045;49.410;11.030;2023-04-24T05:33:14;10.40;;;7.03;;
68225;SDS011;55045;49.410;11.030;2023-04-24T05:36:18;8.88;;;6.90;;
68225;SDS011;55045;49.410;11.030;2023-04-24T05:39:24;9.48;;;6.75;;
68225;SDS011;55045;49.410;11.030;2023-04-24T05:42:28;11.00;;;6.70;;
68225;SDS011;55045;49.410;11.030;2023-04-24T05:45:31;8.10;;;6.10;;
68225;SDS011;55045;49.410;11.030;2023-04-24T05:48:37;11.43;;;6.30;;
68225;SDS011;55045;49.410;11.030;2023-04-24T05:51:41;12.75;;;5.90;;
68225;SDS011;55045;49.410;11.030;2023-04-24T05:54:45;7.55;;;5.47;;
68225;SDS011;55045;49.410;11.030;2023-04-24T05:57:53;7.60;;;5.40;;
68225;SDS011;55045;49.410;11.030;2023-04-24T06:00:57;11.00;;;5.90;;
68225;SDS011;55045;49.410;11.030;2023-04-24T06:04:04;8.55;;;5.30;;
68225;SDS011;55045;49.410;11.030;2023-04-24T06:07:07;7.15;;;5.60;;
68225;SDS011;55045;49.410;11.030;2023-04-24T06:10:14;7.88;;;5.50;;
68225;SDS011;55045;49.410;11.030;2023-04-24T06:13:19;6.97;;;5.05;;
68225;SDS011;55045;49.410;11.030;2023-04-24T06:16:41;5.70;;;4.82;;
68225;SDS011;55045;49.410;11.030;2023-04-24T06:20:08;7.20;;;4.32;;
68225;SDS011;55045;49.410;11.030;2023-04-24T06:23:12;6.32;;;4.15;;
68225;SDS011;55045;49.410;11.030;2023-04-24T06:26:17;6.32;;;4.15;;
68225;SDS011;55045;49.410;11.030;2023-04-24T06:29:20;5.40;;;2.90;;
68225;SDS011;55045;49.410;11.030;2023-04-24T06:32:25;3.95;;;2.40;;
68225;SDS011;55045;49.410;11.030;2023-04-24T06:35:29;3.35;;;2.70;;
68225;SDS011;55045;49.410;11.030;2023-04-24T06:38:32;2.33;;;2.10;;
68225;SDS011;55045;49.410;11.030;2023-04-24T06:41:37;2.22;;;1.67;;
68225;SDS011;55045;49.410;11.030;2023-04-24T06:44:43;3.45;;;1.38;;
68225;SDS011;55045;49.410;11.030;2023-04-24T06:47:47;3.50;;;1.55;;
68225;SDS011;55045;49.410;11.030;2023-04-24T06:50:50;1.52;;;1.40;;
68225;SDS011;55045;49.410;11.030;2023-04-24T06:53:54;3.28;;;1.40;;
68225;SDS011;55045;49.410;11.030;2023-04-24T06:56:59;1.90;;;1.17;;
68225;SDS011;55045;49.410;11.030;2023-04-24T07:00:05;2.78;;;1.40;;
68225;SDS011;55045;49.410;11.030;2023-04-24T07:03:11;4.45;;;1.70;;
68225;SDS011;55045;49.410;11.030;2023-04-24T07:06:14;1.33;;;1.23;;
68225;SDS011;55045;49.410;11.030;2023-04-24T07:09:18;1.33;;;1.20;;
68225;SDS011;55045;49.410;11.030;2023-04-24T07:12:23;2.72;;;1.25;;
68225;SDS011;55045;49.410;11.030;2023-04-24T07:15:26;1.40;;;1.30;;
68225;SDS011;55045;49.410;11.030;2023-04-24T07:18:30;2.95;;;1.50;;
68225;SDS011;55045;49.410;11.030;2023-04-24T07:21:33;1.40;;;1.30;;
68225;SDS011;55045;49.410;11.030;2023-04-24T07:24:36;2.50;;;1.73;;
68225;SDS011;55045;49.410;11.030;2023-04-24T07:27:41;2.28;;;1.70;;
68225;SDS011;55045;49.410;11.030;2023-04-24T07:30:45;1.50;;;1.40;;
68225;SDS011;55045;49.410;11.030;2023-04-24T07:33:48;3.60;;;1.80;;
68225;SDS011;55045;49.410;11.030;2023-04-24T07:36:52;2.65;;;1.60;;
68225;SDS011;55045;49.410;11.030;2023-04-24T07:39:55;2.47;;;1.70;;
68225;SDS011;55045;49.410;11.030;2023-04-24T07:43:00;1.80;;;1.70;;
68225;SDS011;55045;49.410;11.030;2023-04-24T07:46:05;1.90;;;1.60;;
68225;SDS011;55045;49.410;11.030;2023-04-24T07:49:09;2.15;;;1.60;;
68225;SDS011;55045;49.410;11.030;2023-04-24T07:52:15;2.15;;;1.85;;
68225;SDS011;55045;49.410;11.030;2023-04-24T07:55:19;2.13;;;1.90;;
68225;SDS011;55045;49.410;11.030;2023-04-24T07:58:27;2.38;;;2.15;;
68225;SDS011;55045;49.410;11.030;2023-04-24T08:01:31;2.13;;;1.92;;
68225;SDS011;55045;49.410;11.030;2023-04-24T08:04:34;2.38;;;2.17;;
68225;SDS011;55045;49.410;11.030;2023-04-24T08:07:38;3.15;;;2.15;;
68225;SDS011;55045;49.410;11.030;2023-04-24T08:10:41;2.80;;;2.20;;
68225;SDS011;55045;49.410;11.030;2023-04-24T08:13:46;5.10;;;2.10;;
68225;SDS011;55045;49.410;11.030;2023-04-24T08:16:49;3.40;;;2.53;;
68225;SDS011;55045;49.410;11.030;2023-04-24T08:19:53;3.70;;;2.20;;
68225;SDS011;55045;49.410;11.030;2023-04-24T08:23:04;4.80;;;2.70;;
68225;SDS011;55045;49.410;11.030;2023-04-24T08:26:08;3.38;;;2.67;;
68225;SDS011;55045;49.410;11.030;2023-04-24T08:29:14;3.50;;;2.67;;
68225;SDS011;55045;49.410;11.030;2023-04-24T08:32:17;3.35;;;2.50;;
68225;SDS011;55045;49.410;11.030;2023-04-24T08:35:20;3.53;;;2.67;;
68225;SDS011;55045;49.410;11.030;2023-04-24T08:38:24;2.90;;;2.63;;
68225;SDS011;55045;49.410;11.030;2023-04-24T08:41:28;3.08;;;2.70;;
68225;SDS011;55045;49.410;11.030;2023-04-24T08:44:33;3.60;;;2.40;;
68225;SDS011;55045;49.410;11.030;2023-04-24T08:47:37;5.72;;;2.65;;
68225;SDS011;55045;49.410;11.030;2023-04-24T08:50:41;5.60;;;2.50;;
68225;SDS011;55045;49.410;11.030;2023-04-24T08:53:46;3.83;;;2.30;;
68225;SDS011;55045;49.410;11.030;2023-04-24T08:56:49;2.63;;;2.30;;
68225;SDS011;55045;49.410;11.030;2023-04-24T08:59:57;3.95;;;2.83;;
68225;SDS011;55045;49.410;11.030;2023-04-24T09:03:01;2.80;;;2.60;;
68225;SDS011;55045;49.410;11.030;2023-04-24T09:06:08;4.32;;;2.50;;
68225;SDS011;55045;49.410;11.030;2023-04-24T09:09:13;2.85;;;2.58;;
68225;SDS011;55045;49.410;11.030;2023-04-24T09:12:17;3.35;;;2.20;;
68225;SDS011;55045;49.410;11.030;2023-04-24T09:15:22;3.50;;;2.60;;
68225;SDS011;55045;49.410;11.030;2023-04-24T09:18:27;3.45;;;2.50;;
68225;SDS011;55045;49.410;11.030;2023-04-24T09:21:31;4.07;;;2.85;;
68225;SDS011;55045;49.410;11.030;2023-04-24T09:24:35;3.03;;;2.22;;
68225;SDS011;55045;49.410;11.030;2023-04-24T09:27:41;2.85;;;2.20;;
68225;SDS011;55045;49.410;11.030;2023-04-24T09:34:49;4.68;;;2.53;;
68225;SDS011;55045;49.410;11.030;2023-04-24T09:38:07;3.38;;;2.38;;
68225;SDS011;55045;49.410;11.030;2023-04-24T09:41:13;3.20;;;2.55;;
68225;SDS011;55045;49.410;11.030;2023-04-24T09:44:17;3.22;;;2.28;;
68225;SDS011;55045;49.410;11.030;2023-04-24T09:47:22;2.72;;;2.20;;
68225;SDS011;55045;49.410;11.030;2023-04-24T09:50:29;2.85;;;1.90;;
68225;SDS011;55045;49.410;11.030;2023-04-24T09:53:34;2.90;;;2.33;;
68225;SDS011;55045;49.410;11.030;2023-04-24T09:56:42;2.57;;;1.90;;
68225;SDS011;55045;49.410;11.030;2023-04-24T09:59:46;2.97;;;1.90;;
68225;SDS011;55045;49.410;11.030;2023-04-24T10:02:50;4.80;;;1.90;;
68225;SDS011;55045;49.410;11.030;2023-04-24T10:05:57;1.88;;;1.70;;
68225;SDS011;55045;49.410;11.030;2023-04-24T10:09:01;2.22;;;1.95;;
68225;SDS011;55045;49.410;11.030;2023-04-24T10:12:06;1.98;;;1.80;;
68225;SDS011;55045;49.410;11.030;2023-04-24T10:15:10;2.72;;;1.65;;
68225;SDS011;55045;49.410;11.030;2023-04-24T10:18:15;2.17;;;1.83;;
68225;SDS011;55045;49.410;11.030;2023-04-24T10:21:20;1.60;;;1.35;;
68225;SDS011;55045;49.410;11.030;2023-04-24T10:24:24;4.53;;;2.25;;
68225;SDS011;55045;49.410;11.030;2023-04-24T10:27:27;1.67;;;1.58;;
68225;SDS011;55045;49.410;11.030;2023-04-24T10:30:33;1.52;;;1.40;;
68225;SDS011;55045;49.410;11.030;2023-04-24T10:33:37;1.52;;;1.23;;
68225;SDS011;55045;49.410;11.030;2023-04-24T10:36:45;3.22;;;1.50;;
68225;SDS011;55045;49.410;11.030;2023-04-24T10:39:51;1.50;;;1.40;;
68225;SDS011;55045;49.410;11.030;2023-04-24T10:42:56;1.38;;;1.00;;
68225;SDS011;55045;49.410;11.030;2023-04-24T10:46:00;1.95;;;1.30;;
68225;SDS011;55045;49.410;11.030;2023-04-24T10:49:05;1.75;;;1.40;;
68225;SDS011;55045;49.410;11.030;2023-04-24T10:52:12;1.55;;;1.30;;
68225;SDS011;55045;49.410;11.030;2023-04-24T10:58:43;2.53;;;1.70;;
68225;SDS011;55045;49.410;11.030;2023-04-24T11:01:52;1.30;;;1.20;;
68225;SDS011;55045;49.410;11.030;2023-04-24T11:04:56;1.73;;;1.40;;
68225;SDS011;55045;49.410;11.030;2023-04-24T11:08:14;1.58;;;1.20;;
68225;SDS011;55045;49.410;11.030;2023-04-24T11:11:18;2.38;;;1.20;;
68225;SDS011;55045;49.410;11.030;2023-04-24T11:14:23;1.30;;;1.20;;
68225;SDS011;55045;49.410;11.030;2023-04-24T11:17:28;1.38;;;1.27;;
68225;SDS011;55045;49.410;11.030;2023-04-24T11:20:33;3.25;;;1.17;;
68225;SDS011;55045;49.410;11.030;2023-04-24T11:23:37;2.47;;;1.10;;
68225;SDS011;55045;49.410;11.030;2023-04-24T11:26:41;2.75;;;1.30;;
68225;SDS011;55045;49.410;11.030;2023-04-24T11:29:45;1.60;;;1.42;;
68225;SDS011;55045;49.410;11.030;2023-04-24T11:32:50;2.00;;;1.90;;
68225;SDS011;55045;49.410;11.030;2023-04-24T11:35:54;2.80;;;1.80;;
68225;SDS011;55045;49.410;11.030;2023-04-24T11:38:59;3.58;;;1.98;;
68225;SDS011;55045;49.410;11.030;2023-04-24T11:42:03;3.08;;;2.40;;
68225;SDS011;55045;49.410;11.030;2023-04-24T11:45:09;2.33;;;2.13;;
68225;SDS011;55045;49.410;11.030;2023-04-24T11:48:18;2.40;;;2.20;;
68225;SDS011;55045;49.410;11.030;2023-04-24T11:51:24;2.20;;;2.00;;
68225;SDS011;55045;49.410;11.030;2023-04-24T11:54:38;2.10;;;1.90;;
68225;SDS011;55045;49.410;11.030;2023-04-24T11:57:50;3.00;;;1.75;;
68225;SDS011;55045;49.410;11.030;2023-04-24T12:00:58;2.90;;;1.88;;
68225;SDS011;55045;49.410;11.030;2023-04-24T12:04:03;1.60;;;1.50;;
68225;SDS011;55045;49.410;11.030;2023-04-24T12:07:06;2.22;;;1.70;;
68225;SDS011;55045;49.410;11.030;2023-04-24T12:10:12;1.83;;;1.70;;
68225;SDS011;55045;49.410;11.030;2023-04-24T12:13:16;2.35;;;1.88;;
68225;SDS011;55045;49.410;11.030;2023-04-24T12:16:19;2.03;;;1.70;;
68225;SDS011;55045;49.410;11.030;2023-04-24T12:19:23;2.50;;;1.60;;
68225;SDS011;55045;49.410;11.030;2023-04-24T12:22:26;3.03;;;2.67;;
68225;SDS011;55045;49.410;11.030;2023-04-24T12:25:32;2.63;;;2.08;;
68225;SDS011;55045;49.410;11.030;2023-04-24T12:28:36;2.10;;;1.60;;
68225;SDS011;55045;49.410;11.030;2023-04-24T12:31:40;3.80;;;1.95;;
68225;SDS011;55045;49.410;11.030;2023-04-24T12:34:44;1.83;;;1.40;;
68225;SDS011;55045;49.410;11.030;2023-04-24T12:37:47;3.90;;;1.50;;
68225;SDS011;55045;49.410;11.030;2023-04-24T12:41:02;1.25;;;1.15;;
68225;SDS011;55045;49.410;11.030;2023-04-24T12:44:10;1.02;;;1.02;;
68225;SDS011;55045;49.410;11.030;2023-04-24T12:47:13;1.47;;;1.37;;
68225;SDS011;55045;49.410;11.030;2023-04-24T12:50:17;3.50;;;1.48;;
68225;SDS011;55045;49.410;11.030;2023-04-24T12:53:20;2.20;;;1.48;;
68225;SDS011;55045;49.410;11.030;2023-04-24T12:56:25;2.75;;;1.52;;
68225;SDS011;55045;49.410;11.030;2023-04-24T12:59:28;1.73;;;1.60;;
68225;SDS011;55045;49.410;11.030;2023-04-24T13:02:31;2.33;;;1.90;;
68225;SDS011;55045;49.410;11.030;2023-04-24T13:05:36;2.03;;;1.55;;
68225;SDS011;55045;49.410;11.030;2023-04-24T13:08:39;2.28;;;1.70;;
68225;SDS011;55045;49.410;11.030;2023-04-24T13:11:44;2.50;;;1.80;;
68225;SDS011;55045;49.410;11.030;2023-04-24T13:14:47;2.47;;;1.70;;
68225;SDS011;55045;49.410;11.030;2023-04-24T13:17:50;3.80;;;1.88;;
68225;SDS011;55045;49.410;11.030;2023-04-24T13:20:54;3.17;;;1.85;;
68225;SDS011;55045;49.410;11.030;2023-04-24T13:23:57;4.03;;;2.10;;
68225;SDS011;55045;49.410;11.030;2023-04-24T13:27:01;1.80;;;1.60;;
68225;SDS011;55045;49.410;11.030;2023-04-24T13:30:05;2.50;;;2.00;;
68225;SDS011;55045;49.410;11.030;2023-04-24T13:33:09;2.53;;;2.10;;
68225;SDS011;55045;49.410;11.030;2023-04-24T13:36:13;2.42;;;2.22;;
68225;SDS011;55045;49.410;11.030;2023-04-24T13:39:17;2.28;;;1.90;;
68225;SDS011;55045;49.410;11.030;2023-04-24T13:42:21;2.03;;;1.70;;
68225;SDS011;55045;49.410;11.030;2023-04-24T13:45:25;7.20;;;2.40;;
68225;SDS011;55045;49.410;11.030;2023-04-24T13:48:28;2.60;;;2.25;;
68225;SDS011;55045;49.410;11.030;2023-04-24T13:51:31;2.95;;;2.53;;
68225;SDS011;55045;49.410;11.030;2023-04-24T13:54:35;4.47;;;2.60;;
68225;SDS011;55045;49.410;11.030;2023-04-24T13:57:40;3.20;;;2.80;;
68225;SDS011;55045;49.410;11.030;2023-04-24T14:00:43;3.80;;;2.70;;
68225;SDS011;55045;49.410;11.030;2023-04-24T14:03:49;2.92;;;2.47;;
68225;SDS011;55045;49.410;11.030;2023-04-24T14:06:53;2.95;;;2.72;;
68225;SDS011;55045;49.410;11.030;2023-04-24T14:09:56;3.13;;;2.55;;
68225;SDS011;55045;49.410;11.030;2023-04-24T14:13:01;5.07;;;2.80;;
68225;SDS011;55045;49.410;11.030;2023-04-24T14:16:05;4.85;;;2.55;;
68225;SDS011;55045;49.410;11.030;2023-04-24T14:19:09;2.40;;;2.20;;
68225;SDS011;55045;49.410;11.030;2023-04-24T14:22:12;2.97;;;2.67;;
68225;SDS011;55045;49.410;11.030;2023-04-24T14:25:15;2.63;;;2.20;;
68225;SDS011;55045;49.410;11.030;2023-04-24T14:28:20;2.95;;;2.28;;
68225;SDS011;55045;49.410;11.030;2023-04-24T14:31:24;2.22;;;2.03;;
68225;SDS011;55045;49.410;11.030;2023-04-24T14:34:27;2.70;;;2.30;;
68225;SDS011;55045;49.410;11.030;2023-04-24T14:37:30;3.95;;;2.50;;
68225;SDS011;55045;49.410;11.030;2023-04-24T14:40:34;3.80;;;2.75;;
68225;SDS011;55045;49.410;11.030;2023-04-24T14:43:59;2.78;;;2.53;;
68225;SDS011;55045;49.410;11.030;2023-04-24T14:47:02;5.57;;;2.30;;
68225;SDS011;55045;49.410;11.030;2023-04-24T14:50:08;1.42;;;1.33;;
68225;SDS011;55045;49.410;11.030;2023-04-24T14:53:12;1.73;;;1.30;;
68225;SDS011;55045;49.410;11.030;2023-04-24T14:56:15;2.08;;;1.48;;
68225;SDS011;55045;49.410;11.030;2023-04-24T14:59:20;2.72;;;1.90;;
68225;SDS011;55045;49.410;11.030;2023-04-24T15:02:23;2.33;;;1.70;;
68225;SDS011;55045;49.410;11.030;2023-04-24T15:05:27;2.25;;;1.70;;
68225;SDS011;55045;49.410;11.030;2023-04-24T15:08:31;2.10;;;1.90;;
68225;SDS011;55045;49.410;11.030;2023-04-24T15:11:35;3.22;;;2.60;;
68225;SDS011;55045;49.410;11.030;2023-04-24T15:14:39;3.90;;;2.50;;
68225;SDS011;55045;49.410;11.030;2023-04-24T15:17:43;5.35;;;2.63;;
68225;SDS011;55045;49.410;11.030;2023-04-24T15:20:46;3.75;;;2.55;;
68225;SDS011;55045;49.410;11.030;2023-04-24T15:23:49;5.80;;;2.67;;
68225;SDS011;55045;49.410;11.030;2023-04-24T15:26:53;3.30;;;2.55;;
68225;SDS011;55045;49.410;11.030;2023-04-24T15:30:00;3.28;;;2.97;;
68225;SDS011;55045;49.410;11.030;2023-04-24T15:34:49;3.20;;;2.83;;
68225;SDS011;55045;49.410;11.030;2023-04-24T15:38:09;3.22;;;2.92;;
68225;SDS011;55045;49.410;11.030;2023-04-24T15:41:12;4.57;;;3.13;;
68225;SDS011;55045;49.410;11.030;2023-04-24T15:44:15;5.22;;;2.85;;
68225;SDS011;55045;49.410;11.030;2023-04-24T15:47:19;3.63;;;3.03;;
68225;SDS011;55045;49.410;11.030;2023-04-24T15:50:24;4.30;;;3.10;;
68225;SDS011;55045;49.410;11.030;2023-04-24T15:53:28;3.40;;;3.08;;
68225;SDS011;55045;49.410;11.030;2023-04-24T15:56:31;2.60;;;2.38;;
68225;SDS011;55045;49.410;11.030;2023-04-24T15:59:35;4.63;;;3.10;;
68225;SDS011;55045;49.410;11.030;2023-04-24T16:02:38;4.15;;;2.63;;
68225;SDS011;55045;49.410;11.030;2023-04-24T16:05:43;2.92;;;2.40;;
68225;SDS011;55045;49.410;11.030;2023-04-24T16:08:46;3.03;;;2.63;;
68225;SDS011;55045;49.410;11.030;2023-04-24T16:11:50;6.43;;;2.95;;
68225;SDS011;55045;49.410;11.030;2023-04-24T16:14:54;4.82;;;2.50;;
68225;SDS011;55045;49.410;11.030;2023-04-24T16:17:57;4.72;;;3.55;;
68225;SDS011;55045;49.410;11.030;2023-04-24T16:21:02;4.10;;;3.70;;
68225;SDS011;55045;49.410;11.030;2023-04-24T16:24:05;5.63;;;3.60;;
68225;SDS011;55045;49.410;11.030;2023-04-24T16:27:08;4.47;;;3.65;;
68225;SDS011;55045;49.410;11.030;2023-04-24T16:30:12;11.52;;;6.00;;
68225;SDS011;55045;49.410;11.030;2023-04-24T16:33:16;10.88;;;6.40;;
68225;SDS011;55045;49.410;11.030;2023-04-24T16:36:21;7.03;;;4.80;;
68225;SDS011;55045;49.410;11.030;2023-04-24T16:39:24;4.38;;;3.40;;
68225;SDS011;55045;49.410;11.030;2023-04-24T16:42:27;5.38;;;3.90;;
68225;SDS011;55045;49.410;11.030;2023-04-24T16:45:34;4.57;;;3.78;;
68225;SDS011;55045;49.410;11.030;2023-04-24T16:48:37;5.10;;;3.75;;
68225;SDS011;55045;49.410;11.030;2023-04-24T16:51:42;5.47;;;3.20;;
68225;SDS011;55045;49.410;11.030;2023-04-24T16:54:46;3.70;;;3.28;;
68225;SDS011;55045;49.410;11.030;2023-04-24T16:57:49;3.63;;;3.05;;
68225;SDS011;55045;49.410;11.030;2023-04-24T17:00:53;4.45;;;3.75;;
68225;SDS011;55045;49.410;11.030;2023-04-24T17:03:56;4.13;;;3.45;;
68225;SDS011;55045;49.410;11.030;2023-04-24T17:07:01;5.22;;;3.33;;
68225;SDS011;55045;49.410;11.030;2023-04-24T17:10:05;4.57;;;3.85;;
68225;SDS011;55045;49.410;11.030;2023-04-24T17:13:09;5.60;;;4.20;;
68225;SDS011;55045;49.410;11.030;2023-04-24T17:16:15;5.32;;;4.30;;
68225;SDS011;55045;49.410;11.030;2023-04-24T17:19:18;6.80;;;5.20;;
68225;SDS011;55045;49.410;11.030;2023-04-24T17:22:23;7.93;;;4.90;;
68225;SDS011;55045;49.410;11.030;2023-04-24T17:25:26;7.50;;;5.45;;
68225;SDS011;55045;49.410;11.030;2023-04-24T17:28:30;7.75;;;5.18;;
68225;SDS011;55045;49.410;11.030;2023-04-24T17:31:34;6.43;;;4.93;;
68225;SDS011;55045;49.410;11.030;2023-04-24T17:34:37;6.07;;;5.10;;
68225;SDS011;55045;49.410;11.030;2023-04-24T17:37:42;5.00;;;3.78;;
68225;SDS011;55045;49.410;11.030;2023-04-24T17:40:46;3.55;;;2.95;;
68225;SDS011;55045;49.410;11.030;2023-04-24T17:43:53;4.78;;;3.30;;
68225;SDS011;55045;49.410;11.030;2023-04-24T17:46:57;5.22;;;3.97;;
68225;SDS011;55045;49.410;11.030;2023-04-24T17:50:00;3.28;;;2.97;;
68225;SDS011;55045;49.410;11.030;2023-04-24T17:53:04;3.92;;;2.80;;
68225;SDS011;55045;49.410;11.030;2023-04-24T17:56:08;3.00;;;2.45;;
68225;SDS011;55045;49.410;11.030;2023-04-24T17:59:11;4.32;;;3.50;;
68225;SDS011;55045;49.410;11.030;2023-04-24T18:02:14;5.20;;;3.10;;
68225;SDS011;55045;49.410;11.030;2023-04-24T18:05:18;3.50;;;3.20;;
68225;SDS011;55045;49.410;11.030;2023-04-24T18:08:23;3.30;;;3.00;;
68225;SDS011;55045;49.410;11.030;2023-04-24T18:11:26;2.97;;;2.72;;
68225;SDS011;55045;49.410;11.030;2023-04-24T18:14:29;3.50;;;3.20;;
68225;SDS011;55045;49.410;11.030;2023-04-24T18:17:33;3.75;;;2.90;;
68225;SDS011;55045;49.410;11.030;2023-04-24T18:20:36;4.05;;;3.05;;
68225;SDS011;55045;49.410;11.030;2023-04-24T18:23:41;6.43;;;3.10;;
68225;SDS011;55045;49.410;11.030;2023-04-24T18:26:45;4.95;;;3.50;;
68225;SDS011;55045;49.410;11.030;2023-04-24T18:29:49;4.63;;;3.17;;